Time;durP1;ratioP1;P1;durP2;ratioP2;P2;SDS_P1;SDS_P2;PMS_P1;PMS_P2;Temp;Humidity;BMP_temperature;BMP_pressure;BME280_temperature;BME280_humidity;BME280_pressure;Samples;Min_cycle;Max_cycle;Signal;HPM_P1;HPM_P2
2023/07/17 00:00:12;;;;;;;;;;;;;;;23.17;99.89;95478.53;5114541;28;1044;-55
2023/07/17 00:02:40;;;;;;;;;;;;;;;23.31;98.75;95470.16;5114561;28;1032;-55
2023/07/17 00:05:06;;;;;;;;;;;;;;;23.40;97.85;95479.66;5114475;28;1076;-55
2023/07/17 00:07:32;;;;;;;;;;;;;;;23.40;98.56;95471.47;5114570;28;988;-55
2023/07/17 00:09:58;;;;;;;;;;;;;;;23.54;96.84;95472.94;5114405;28;1040;-55
2023/07/17 00:12:24;;;;;;;;;;;;;;;23.50;97.41;95477.19;5114339;28;1032;-55
2023/07/17 00:14:50;;;;;;;;;;;;;;;23.40;97.48;95471.47;5114250;28;1156;-55
2023/07/17 00:17:16;;;;;;;;;;;;;;;23.13;98.57;95481.97;5114448;28;1036;-55
2023/07/17 00:19:51;;;;;;;;;;;;;;;22.91;100.00;95474.25;5114294;28;1993;-55
2023/07/17 00:22:18;;;;;;;;;;;;;;;23.13;99.63;95473.78;5113193;28;1055;-55
2023/07/17 00:28:29;;;;;;;;;;;;;;;23.10;98.64;95477.78;5104482;28;1064;-55
2023/07/17 00:30:56;;;;;;;;;;;;;;;23.00;99.36;95489.22;5114046;28;1533;-55
2023/07/17 00:33:22;;;;;;;;;;;;;;;22.80;99.80;95480.47;5114031;28;1083;-55
2023/07/17 00:35:48;;;;;;;;;;;;;;;22.81;100.00;95482.97;5114263;28;1045;-57
2023/07/17 00:38:14;;;;;;;;;;;;;;;22.77;100.00;95481.78;5114148;28;1914;-55
2023/07/17 00:40:40;;;;;;;;;;;;;;;22.85;100.00;95490.69;5112953;28;973;-55
2023/07/17 00:43:10;;;;;;;;;;;;;;;23.01;100.00;95484.59;5114094;28;1032;-55
2023/07/17 00:45:36;;;;;;;;;;;;;;;23.09;99.30;95480.78;5113902;28;1104;-55
2023/07/17 00:48:02;;;;;;;;;;;;;;;23.08;99.97;95493.56;5113825;28;1084;-55
2023/07/17 00:50:29;;;;;;;;;;;;;;;22.75;100.00;95485.81;5114111;28;1016;-55
2023/07/17 00:52:55;;;;;;;;;;;;;;;22.66;100.00;95492.63;5113831;28;1028;-55
2023/07/17 00:55:21;;;;;;;;;;;;;;;22.78;100.00;95496.22;5113954;28;973;-55
2023/07/17 00:57:49;;;;;;;;;;;;;;;22.78;100.00;95488.03;5113746;28;1906;-55
2023/07/17 01:00:15;;;;;;;;;;;;;;;22.79;100.00;95495.19;5113895;28;1020;-55
2023/07/17 01:02:41;;;;;;;;;;;;;;;22.68;100.00;95493.22;5115759;28;1044;-55
2023/07/17 01:05:08;;;;;;;;;;;;;;;22.73;100.00;95498.81;5117975;28;1111;-55
2023/07/17 01:07:37;;;;;;;;;;;;;;;22.97;99.24;95500.59;5118112;28;932;-55
2023/07/17 01:10:05;;;;;;;;;;;;;;;22.84;99.24;95489.88;5117986;28;981;-55
2023/07/17 01:12:35;;;;;;;;;;;;;;;22.72;99.78;95495.25;5117832;28;1957;-55
2023/07/17 01:15:01;;;;;;;;;;;;;;;22.68;100.00;95482.31;5117797;28;1045;-55
2023/07/17 01:17:27;;;;;;;;;;;;;;;22.73;100.00;95480.56;5116428;28;1921;-55
2023/07/17 01:19:53;;;;;;;;;;;;;;;22.80;99.62;95489.50;5117647;28;1049;-55
2023/07/17 01:22:19;;;;;;;;;;;;;;;22.82;99.54;95483.78;5117844;28;1358;-55
2023/07/17 01:24:45;;;;;;;;;;;;;;;22.75;100.00;95492.06;5117558;28;1041;-55
2023/07/17 01:27:12;;;;;;;;;;;;;;;22.57;100.00;95492.91;5117492;28;1258;-55
2023/07/17 01:29:38;;;;;;;;;;;;;;;22.42;100.00;95487.88;5116275;28;1515;-55
2023/07/17 01:32:04;;;;;;;;;;;;;;;22.34;100.00;95499.03;5117350;28;1106;-54
2023/07/17 01:34:30;;;;;;;;;;;;;;;22.45;100.00;95502.91;5117422;28;1103;-55
2023/07/17 01:36:56;;;;;;;;;;;;;;;22.51;100.00;95502.00;5117487;28;1036;-55
2023/07/17 01:39:24;;;;;;;;;;;;;;;22.61;100.00;95494.16;5117349;28;1905;-55
2023/07/17 01:41:50;;;;;;;;;;;;;;;22.70;99.99;95505.53;5117334;28;1001;-55
2023/07/17 01:44:16;;;;;;;;;;;;;;;22.68;100.00;95506.84;5117270;28;1001;-55
2023/07/17 01:46:42;;;;;;;;;;;;;;;22.72;100.00;95505.31;5117069;28;1116;-55
2023/07/17 01:49:08;;;;;;;;;;;;;;;22.97;98.14;95510.66;5117321;28;1012;-55
2023/07/17 01:51:34;;;;;;;;;;;;;;;22.79;98.30;95501.47;5116110;28;1044;-55
2023/07/17 01:54:00;;;;;;;;;;;;;;;22.61;99.36;95501.47;5116954;28;1991;-55
2023/07/17 01:56:28;;;;;;;;;;;;;;;22.50;100.00;95507.66;5117050;28;1035;-55
2023/07/17 01:58:54;;;;;;;;;;;;;;;22.44;100.00;95505.88;5116909;28;1906;-55
2023/07/17 02:01:20;;;;;;;;;;;;;;;22.30;100.00;95505.19;5116872;28;1007;-55
2023/07/17 02:03:46;;;;;;;;;;;;;;;22.31;100.00;95506.84;5117048;28;972;-55
2023/07/17 02:06:12;;;;;;;;;;;;;;;22.39;100.00;95509.28;5116993;28;1039;-55
2023/07/17 02:08:38;;;;;;;;;;;;;;;22.47;99.81;95505.41;5116866;28;1028;-55
2023/07/17 02:11:04;;;;;;;;;;;;;;;22.44;100.00;95511.31;5116627;28;1041;-54
2023/07/17 02:13:30;;;;;;;;;;;;;;;22.39;99.90;95512.00;5115493;28;965;-55
2023/07/17 02:15:56;;;;;;;;;;;;;;;22.19;100.00;95510.28;5116550;28;1059;-55
2023/07/17 02:18:23;;;;;;;;;;;;;;;22.18;100.00;95515.97;5116496;28;1906;-55
2023/07/17 02:20:52;;;;;;;;;;;;;;;22.16;100.00;95510.75;5116738;28;1031;-55
2023/07/17 02:23:18;;;;;;;;;;;;;;;22.25;100.00;95516.75;5116584;27;960;-55
2023/07/17 02:25:44;;;;;;;;;;;;;;;22.19;100.00;95517.63;5116508;28;976;-55
2023/07/17 02:28:10;;;;;;;;;;;;;;;22.14;100.00;95517.44;5116230;28;1299;-55
2023/07/17 02:30:36;;;;;;;;;;;;;;;22.07;99.79;95519.44;5116078;28;1500;-55
2023/07/17 02:33:03;;;;;;;;;;;;;;;21.90;100.00;95517.25;5116474;28;989;-55
2023/07/17 02:35:29;;;;;;;;;;;;;;;21.88;100.00;95521.28;5116433;28;1203;-55
2023/07/17 02:37:55;;;;;;;;;;;;;;;21.95;100.00;95528.31;5116210;28;1980;-55
2023/07/17 02:40:21;;;;;;;;;;;;;;;22.01;100.00;95524.69;5116221;28;969;-55
2023/07/17 02:42:47;;;;;;;;;;;;;;;21.82;100.00;95520.28;5114930;28;974;-55
2023/07/17 02:45:13;;;;;;;;;;;;;;;21.70;100.00;95522.03;5115982;28;1088;-55
2023/07/17 02:47:39;;;;;;;;;;;;;;;21.63;100.00;95527.56;5116176;28;1029;-56
2023/07/17 02:50:05;;;;;;;;;;;;;;;21.73;100.00;95527.88;5114701;28;1108;-55
2023/07/17 02:52:34;;;;;;;;;;;;;;;21.73;100.00;95521.59;5115898;28;1032;-55
2023/07/17 02:55:02;;;;;;;;;;;;;;;21.52;100.00;95518.19;5115984;28;968;-55
2023/07/17 02:57:28;;;;;;;;;;;;;;;21.47;100.00;95530.78;5115758;28;1986;-55
2023/07/17 02:59:54;;;;;;;;;;;;;;;21.61;100.00;95533.22;5115672;28;1049;-55
2023/07/17 03:02:20;;;;;;;;;;;;;;;21.76;100.00;95540.19;5115802;27;1070;-55
2023/07/17 03:04:46;;;;;;;;;;;;;;;21.77;100.00;95529.09;5115487;28;997;-55
2023/07/17 03:07:12;;;;;;;;;;;;;;;21.78;100.00;95538.13;5115445;28;992;-55
2023/07/17 03:09:38;;;;;;;;;;;;;;;21.78;100.00;95538.94;5115596;28;1029;-55
2023/07/17 03:12:04;;;;;;;;;;;;;;;21.87;100.00;95542.19;5115469;28;1024;-55
2023/07/17 03:14:30;;;;;;;;;;;;;;;21.80;100.00;95545.00;5115417;27;1198;-55
2023/07/17 03:16:56;;;;;;;;;;;;;;;21.63;100.00;95547.41;5115352;28;1057;-55
2023/07/17 03:19:22;;;;;;;;;;;;;;;21.56;100.00;95549.34;5115157;28;1913;-55
2023/07/17 03:21:48;;;;;;;;;;;;;;;21.49;100.00;95542.28;5115320;28;1024;-55
2023/07/17 03:24:14;;;;;;;;;;;;;;;21.59;100.00;95542.66;5115367;28;1038;-55
2023/07/17 03:26:40;;;;;;;;;;;;;;;21.51;100.00;95551.88;5114993;28;1038;-55
2023/07/17 03:29:07;;;;;;;;;;;;;;;21.52;100.00;95547.31;5114919;28;1219;-55
2023/07/17 03:31:33;;;;;;;;;;;;;;;21.42;100.00;95556.75;5115331;27;1048;-55
2023/07/17 03:33:59;;;;;;;;;;;;;;;21.41;100.00;95551.50;5114985;28;1112;-55
2023/07/17 03:36:25;;;;;;;;;;;;;;;21.53;100.00;95555.25;5114976;28;1004;-55
2023/07/17 03:38:51;;;;;;;;;;;;;;;21.64;100.00;95551.81;5114953;28;1913;-55
2023/07/17 03:41:20;;;;;;;;;;;;;;;21.54;100.00;95559.63;5114947;28;1021;-55
2023/07/17 03:43:46;;;;;;;;;;;;;;;21.74;100.00;95555.91;5114789;28;1032;-54
2023/07/17 03:46:13;;;;;;;;;;;;;;;21.91;100.00;95559.78;5114990;28;1047;-54
2023/07/17 03:48:39;;;;;;;;;;;;;;;22.11;99.33;95561.47;5114684;28;1052;-55
2023/07/17 03:51:05;;;;;;;;;;;;;;;22.23;98.37;95560.53;5114774;28;1028;-55
2023/07/17 03:53:31;;;;;;;;;;;;;;;22.06;100.00;95564.84;5114736;28;1274;-56
2023/07/17 03:55:57;;;;;;;;;;;;;;;21.98;100.00;95560.53;5114664;28;1000;-55
2023/07/17 03:58:23;;;;;;;;;;;;;;;21.97;100.00;95569.78;5114450;28;1914;-56
2023/07/17 04:00:49;;;;;;;;;;;;;;;22.08;100.00;95567.38;5114825;28;1032;-55
2023/07/17 04:03:15;;;;;;;;;;;;;;;22.23;100.00;95570.56;5114736;28;1036;-56
2023/07/17 04:05:41;;;;;;;;;;;;;;;22.26;100.00;95569.34;5114611;28;961;-56
2023/07/17 04:08:07;;;;;;;;;;;;;;;22.29;100.00;95567.00;5114586;28;984;-55
2023/07/17 04:10:33;;;;;;;;;;;;;;;22.48;100.00;95572.47;5114374;28;1033;-55
2023/07/17 04:12:59;;;;;;;;;;;;;;;22.65;100.00;95576.28;5114273;28;988;-56
2023/07/17 04:15:25;;;;;;;;;;;;;;;22.88;100.00;95583.78;5114515;28;1029;-56
2023/07/17 04:17:51;;;;;;;;;;;;;;;22.86;100.00;95577.72;5114388;28;1913;-56
2023/07/17 04:20:19;;;;;;;;;;;;;;;23.02;99.92;95578.97;5114357;28;1031;-55
2023/07/17 04:22:45;;;;;;;;;;;;;;;23.35;98.59;95578.59;5114137;28;1045;-55
2023/07/17 04:25:11;;;;;;;;;;;;;;;23.42;99.61;95583.13;5114196;28;1039;-55
2023/07/17 04:27:37;;;;;;;;;;;;;;;23.48;100.00;95577.56;5113931;28;1253;-56
2023/07/17 04:30:03;;;;;;;;;;;;;;;23.71;98.29;95584.16;5114337;28;1020;-56
2023/07/17 04:32:29;;;;;;;;;;;;;;;23.81;98.09;95589.06;5114273;28;1078;-56
2023/07/17 04:34:56;;;;;;;;;;;;;;;23.74;98.81;95586.44;5114131;28;976;-55
2023/07/17 04:37:22;;;;;;;;;;;;;;;23.81;99.52;95598.13;5113283;28;1112;-54
2023/07/17 04:39:48;;;;;;;;;;;;;;;24.07;97.91;95596.03;5113918;28;1922;-56
2023/07/17 04:42:14;;;;;;;;;;;;;;;24.15;97.57;95592.97;5113933;28;1061;-55
2023/07/17 04:44:40;;;;;;;;;;;;;;;24.27;97.88;95593.78;5114153;28;988;-56
2023/07/17 04:47:06;;;;;;;;;;;;;;;24.36;94.73;95607.94;5113931;28;1041;-55
2023/07/17 04:49:32;;;;;;;;;;;;;;;24.29;94.84;95607.22;5114017;28;1055;-56
2023/07/17 04:51:58;;;;;;;;;;;;;;;24.45;93.33;95600.22;5113823;28;1091;-56
2023/07/17 04:54:24;;;;;;;;;;;;;;;24.46;93.38;95604.63;5113882;28;1004;-56
2023/07/17 04:56:50;;;;;;;;;;;;;;;24.48;93.62;95602.47;5113833;28;1361;-56
2023/07/17 04:59:16;;;;;;;;;;;;;;;24.42;93.35;95604.25;5113701;28;1983;-55
2023/07/17 05:01:42;;;;;;;;;;;;;;;24.70;93.96;95610.91;5113784;28;1045;-55
2023/07/17 05:04:08;;;;;;;;;;;;;;;24.66;92.09;95605.13;5113832;28;1048;-56
2023/07/17 05:06:34;;;;;;;;;;;;;;;24.71;93.08;95607.97;5113724;28;907;-56
2023/07/17 05:09:00;;;;;;;;;;;;;;;24.84;93.05;95604.16;5113776;28;1039;-56
2023/07/17 05:11:26;;;;;;;;;;;;;;;25.18;91.68;95607.06;5113714;28;964;-56
2023/07/17 05:13:52;;;;;;;;;;;;;;;25.22;91.74;95608.22;5113861;28;1005;-56
2023/07/17 05:16:18;;;;;;;;;;;;;;;25.41;90.12;95605.34;5113708;28;1112;-56
2023/07/17 05:18:44;;;;;;;;;;;;;;;25.23;89.99;95604.47;5113572;28;1980;-55
2023/07/17 05:21:10;;;;;;;;;;;;;;;25.21;91.15;95605.72;5113680;28;961;-55
2023/07/17 05:23:36;;;;;;;;;;;;;;;25.29;90.52;95608.13;5113631;28;993;-56
2023/07/17 05:26:03;;;;;;;;;;;;;;;25.32;88.94;95613.94;5113596;28;969;-56
2023/07/17 05:28:29;;;;;;;;;;;;;;;25.39;90.87;95615.72;5112203;28;1115;-55
2023/07/17 05:30:56;;;;;;;;;;;;;;;25.41;88.65;95614.38;5113481;28;1041;-56
2023/07/17 05:33:22;;;;;;;;;;;;;;;25.53;89.43;95619.81;5113555;28;2075;-55
2023/07/17 05:35:49;;;;;;;;;;;;;;;25.77;87.66;95617.81;5113542;28;980;-55
2023/07/17 05:38:15;;;;;;;;;;;;;;;25.94;85.90;95625.28;5113372;28;1989;-56
2023/07/17 05:40:41;;;;;;;;;;;;;;;25.90;86.23;95622.16;5113399;28;1047;-56
2023/07/17 05:43:07;;;;;;;;;;;;;;;25.89;85.79;95626.78;5113391;28;1039;-55
2023/07/17 05:45:34;;;;;;;;;;;;;;;26.01;86.49;95626.78;5113603;28;981;-56
2023/07/17 05:48:00;;;;;;;;;;;;;;;26.05;85.06;95629.88;5114140;28;1024;-56
2023/07/17 05:50:26;;;;;;;;;;;;;;;26.32;84.25;95635.53;5117052;28;933;-56
2023/07/17 05:52:52;;;;;;;;;;;;;;;26.40;83.98;95629.63;5115839;28;1060;-55
2023/07/17 05:55:18;;;;;;;;;;;;;;;26.56;81.57;95630.72;5117034;28;1060;-55
2023/07/17 05:57:44;;;;;;;;;;;;;;;26.64;82.04;95627.56;5116828;28;1902;-55
2023/07/17 06:00:14;;;;;;;;;;;;;;;26.78;82.96;95635.44;5116918;28;1052;-55
2023/07/17 06:02:44;;;;;;;;;;;;;;;26.76;83.35;95632.13;5117081;28;973;-55
2023/07/17 06:05:10;;;;;;;;;;;;;;;26.84;82.76;95634.44;5116950;28;1028;-56
2023/07/17 06:07:37;;;;;;;;;;;;;;;26.99;80.95;95636.56;5116866;28;992;-55
2023/07/17 06:10:03;;;;;;;;;;;;;;;27.08;80.90;95630.38;5116710;28;1028;-55
2023/07/17 06:12:29;;;;;;;;;;;;;;;27.20;81.19;95626.69;5116670;28;1081;-54
2023/07/17 06:14:56;;;;;;;;;;;;;;;27.24;81.10;95625.94;5116651;28;1100;-55
2023/07/17 06:17:22;;;;;;;;;;;;;;;27.36;83.06;95627.78;5116636;28;1100;-55
2023/07/17 06:19:48;;;;;;;;;;;;;;;27.45;81.21;95634.44;5116566;28;1984;-55
2023/07/17 06:22:15;;;;;;;;;;;;;;;27.60;80.35;95636.53;5116572;28;1060;-55
2023/07/17 06:24:41;;;;;;;;;;;;;;;27.54;80.62;95630.16;5116458;28;989;-55
2023/07/17 06:27:07;;;;;;;;;;;;;;;27.59;79.75;95632.16;5116252;28;1099;-55
2023/07/17 06:29:33;;;;;;;;;;;;;;;27.89;79.29;95639.09;5115439;28;1056;-55
2023/07/17 06:31:59;;;;;;;;;;;;;;;27.83;78.72;95622.53;5116461;27;1040;-55
2023/07/17 06:34:25;;;;;;;;;;;;;;;28.06;78.04;95628.00;5115984;28;1032;-55
2023/07/17 06:36:51;;;;;;;;;;;;;;;28.23;77.07;95626.81;5115945;28;1046;-55
2023/07/17 06:39:17;;;;;;;;;;;;;;;28.35;78.50;95626.63;5115896;28;1918;-55
2023/07/17 06:41:43;;;;;;;;;;;;;;;28.40;78.08;95623.06;5114959;28;1121;-55
2023/07/17 06:44:09;;;;;;;;;;;;;;;28.32;76.76;95621.63;5116247;28;1142;-55
2023/07/17 06:46:35;;;;;;;;;;;;;;;28.40;76.93;95618.44;5115153;28;1005;-55
2023/07/17 06:49:01;;;;;;;;;;;;;;;28.56;80.07;95615.81;5115881;28;1049;-55
2023/07/17 06:51:27;;;;;;;;;;;;;;;28.61;77.76;95616.69;5115906;28;1001;-55
2023/07/17 06:53:53;;;;;;;;;;;;;;;28.72;76.98;95619.50;5115708;28;999;-55
2023/07/17 06:56:19;;;;;;;;;;;;;;;28.88;75.11;95617.69;5115920;28;972;-55
2023/07/17 06:58:45;;;;;;;;;;;;;;;28.97;76.58;95622.44;5115615;28;1906;-55
2023/07/17 07:01:11;;;;;;;;;;;;;;;28.99;74.40;95613.91;5115179;28;1031;-55
2023/07/17 07:03:37;;;;;;;;;;;;;;;29.00;75.16;95615.56;5115775;27;976;-55
2023/07/17 07:06:06;;;;;;;;;;;;;;;29.14;75.44;95614.03;5115666;28;1016;-55
2023/07/17 07:08:32;;;;;;;;;;;;;;;29.11;75.65;95610.94;5115433;28;1032;-55
2023/07/17 07:10:59;;;;;;;;;;;;;;;29.42;73.62;95613.88;5115438;28;1100;-55
2023/07/17 07:13:26;;;;;;;;;;;;;;;29.62;74.57;95615.88;5115616;28;1064;-55
2023/07/17 07:15:52;;;;;;;;;;;;;;;29.63;70.98;95618.34;5115542;28;1012;-55
2023/07/17 07:18:19;;;;;;;;;;;;;;;29.82;69.97;95604.91;5115221;28;1914;-55
2023/07/17 07:20:45;;;;;;;;;;;;;;;29.75;71.52;95607.13;5115338;28;976;-55
2023/07/17 07:23:11;;;;;;;;;;;;;;;29.79;70.23;95602.72;5115699;28;1036;-55
2023/07/17 07:25:37;;;;;;;;;;;;;;;29.88;68.20;95597.50;5115189;28;1048;-55
2023/07/17 07:28:04;;;;;;;;;;;;;;;29.84;70.52;95593.63;5114964;28;1237;-55
2023/07/17 07:30:37;;;;;;;;;;;;;;;30.05;69.78;95597.25;5115273;28;1528;-55
2023/07/17 07:33:12;;;;;;;;;;;;;;;30.29;69.75;95590.09;5115183;28;1010;-55
2023/07/17 07:35:46;;;;;;;;;;;;;;;30.48;69.79;95593.16;5114973;28;1007;-55
2023/07/17 07:38:21;;;;;;;;;;;;;;;30.51;69.73;95594.56;5114891;28;1978;-55
2023/07/17 07:40:55;;;;;;;;;;;;;;;30.51;70.23;95591.78;5115028;28;928;-55
2023/07/17 07:43:29;;;;;;;;;;;;;;;30.73;68.67;95588.72;5114839;28;950;-55
2023/07/17 07:46:04;;;;;;;;;;;;;;;30.51;67.14;95587.09;5114706;28;970;-55
2023/07/17 07:48:38;;;;;;;;;;;;;;;30.44;66.07;95588.47;5115017;28;1031;-55
2023/07/17 07:51:13;;;;;;;;;;;;;;;30.58;67.96;95583.22;5114743;28;1032;-55
2023/07/17 07:53:45;;;;;;;;;;;;;;;30.72;65.38;95582.38;5114783;28;949;-55
2023/07/17 07:56:19;;;;;;;;;;;;;;;30.90;68.52;95580.16;5114586;28;1049;-55
2023/07/17 07:58:54;;;;;;;;;;;;;;;31.07;65.71;95583.41;5114390;28;1910;-55
2023/07/17 08:01:28;;;;;;;;;;;;;;;31.32;63.69;95582.53;5114577;28;968;-55
2023/07/17 08:04:02;;;;;;;;;;;;;;;31.49;65.57;95581.34;5114615;28;949;-55
2023/07/17 08:06:36;;;;;;;;;;;;;;;31.50;67.84;95581.06;5114639;28;1373;-56
2023/07/17 08:09:10;;;;;;;;;;;;;;;31.26;64.86;95578.09;5114353;28;929;-55
2023/07/17 08:11:44;;;;;;;;;;;;;;;31.43;62.83;95572.22;5113589;28;940;-55
2023/07/17 08:14:21;;;;;;;;;;;;;;;31.41;64.45;95574.44;5114490;28;1014;-55
2023/07/17 08:16:54;;;;;;;;;;;;;;;31.36;64.26;95577.25;5114352;28;933;-55
2023/07/17 08:19:29;;;;;;;;;;;;;;;31.46;64.92;95573.63;5114218;28;1891;-55
2023/07/17 08:22:03;;;;;;;;;;;;;;;31.51;64.50;95573.59;5114363;28;959;-55
2023/07/17 08:24:37;;;;;;;;;;;;;;;31.75;64.38;95570.19;5114386;28;1004;-55
2023/07/17 08:27:11;;;;;;;;;;;;;;;31.75;60.94;95567.41;5113987;28;1396;-56
2023/07/17 08:29:45;;;;;;;;;;;;;;;31.71;63.16;95559.69;5114172;28;1015;-56
2023/07/17 08:32:19;;;;;;;;;;;;;;;31.84;60.99;95572.06;5113977;28;968;-55
2023/07/17 08:34:54;;;;;;;;;;;;;;;32.12;60.72;95564.16;5114234;28;944;-55
2023/07/17 08:37:28;;;;;;;;;;;;;;;32.14;61.48;95559.16;5114305;28;1031;-55
2023/07/17 08:40:00;;;;;;;;;;;;;;;32.24;60.01;95567.38;5113791;28;1996;-56
2023/07/17 08:42:34;;;;;;;;;;;;;;;32.38;59.45;95559.22;5113878;28;929;-55
2023/07/17 08:45:09;;;;;;;;;;;;;;;32.47;62.04;95559.44;5113069;28;932;-55
2023/07/17 08:47:43;;;;;;;;;;;;;;;32.49;59.91;95558.00;5113880;28;957;-56
2023/07/17 08:50:18;;;;;;;;;;;;;;;32.41;59.97;95555.06;5113880;28;1025;-55
2023/07/17 08:52:54;;;;;;;;;;;;;;;32.44;58.97;95552.56;5113901;28;909;-56
2023/07/17 08:55:29;;;;;;;;;;;;;;;32.57;58.49;95550.25;5113963;28;2350;-56
2023/07/17 08:58:04;;;;;;;;;;;;;;;32.66;58.42;95548.50;5113909;28;1989;-56
2023/07/17 09:00:39;;;;;;;;;;;;;;;32.74;60.11;95550.63;5113881;28;1011;-55
2023/07/17 09:03:13;;;;;;;;;;;;;;;32.80;60.21;95543.06;5113862;28;1015;-56
2023/07/17 09:05:47;;;;;;;;;;;;;;;32.90;56.77;95551.28;5113647;28;939;-56
2023/07/17 09:08:22;;;;;;;;;;;;;;;32.82;56.39;95547.22;5113706;28;954;-55
2023/07/17 09:11:02;;;;;;;;;;;;;;;32.86;56.56;95542.75;5113577;28;1156;-55
2023/07/17 09:13:38;;;;;;;;;;;;;;;33.05;54.01;95544.75;5113694;28;950;-55
2023/07/17 09:16:20;;;;;;;;;;;;;;;33.04;54.42;95543.09;5113645;28;1501;-55
2023/07/17 09:18:55;;;;;;;;;;;;;;;33.15;57.46;95544.66;5113897;28;1910;-56
2023/07/17 09:21:29;;;;;;;;;;;;;;;33.26;55.07;95539.81;5113649;28;1008;-55
2023/07/17 09:24:04;;;;;;;;;;;;;;;33.25;57.03;95538.97;5116259;28;960;-55
2023/07/17 09:26:30;;;;;;;;;;;;;;;33.31;55.85;95538.94;5117487;28;997;-56
2023/07/17 09:28:57;;;;;;;;;;;;;;;33.29;56.18;95538.41;5117315;28;1099;-56
2023/07/17 09:31:24;;;;;;;;;;;;;;;33.35;55.55;95528.91;5117663;28;973;-55
2023/07/17 09:33:51;;;;;;;;;;;;;;;33.40;54.03;95520.53;5117532;28;1041;-55
2023/07/17 09:36:17;;;;;;;;;;;;;;;33.45;55.95;95512.16;5116298;28;1048;-55
2023/07/17 09:38:43;;;;;;;;;;;;;;;33.52;53.15;95515.34;5117736;28;1976;-55
2023/07/17 09:41:18;;;;;;;;;;;;;;;33.51;51.47;95519.25;5117235;28;1107;-56
2023/07/17 09:43:51;;;;;;;;;;;;;;;33.46;51.14;95520.13;5117377;28;942;-56
2023/07/17 09:46:17;;;;;;;;;;;;;;;33.52;53.07;95517.31;5117363;28;997;-55
2023/07/17 09:48:43;;;;;;;;;;;;;;;33.47;50.79;95518.22;5117017;28;980;-55
2023/07/17 09:51:09;;;;;;;;;;;;;;;33.44;50.51;95518.81;5115914;28;1047;-55
2023/07/17 09:53:36;;;;;;;;;;;;;;;33.45;48.84;95520.47;5116968;28;961;-56
2023/07/17 09:56:03;;;;;;;;;;;;;;;33.53;51.62;95516.19;5116871;28;1049;-56
2023/07/17 09:58:30;;;;;;;;;;;;;;;33.61;51.16;95521.88;5117073;28;1905;-56
2023/07/17 10:00:57;;;;;;;;;;;;;;;33.54;51.13;95512.28;5117060;28;1134;-55
2023/07/17 10:03:23;;;;;;;;;;;;;;;33.36;51.06;95520.28;5116762;28;1136;-56
2023/07/17 10:05:50;;;;;;;;;;;;;;;33.32;50.98;95518.44;5116823;28;1028;-56
2023/07/17 10:08:17;;;;;;;;;;;;;;;33.26;51.38;95517.66;5116700;28;1031;-55
2023/07/17 10:10:43;;;;;;;;;;;;;;;33.35;51.05;95515.03;5116654;28;1112;-56
2023/07/17 10:13:10;;;;;;;;;;;;;;;33.52;52.00;95506.22;5116799;28;981;-55
2023/07/17 10:15:36;;;;;;;;;;;;;;;33.61;48.16;95501.66;5116778;28;1058;-55
2023/07/17 10:18:06;;;;;;;;;;;;;;;33.68;51.35;95502.16;5116570;28;1985;-55
2023/07/17 10:20:32;;;;;;;;;;;;;;;33.44;43.72;95500.22;5116638;28;964;-55
2023/07/17 10:22:58;;;;;;;;;;;;;;;33.46;46.51;95494.38;5116922;28;1194;-56
2023/07/17 10:25:28;;;;;;;;;;;;;;;33.54;48.92;95496.50;5116377;28;1052;-55
2023/07/17 10:28:03;;;;;;;;;;;;;;;33.73;49.42;95493.75;5116374;28;1281;-56
2023/07/17 10:30:30;;;;;;;;;;;;;;;33.83;46.10;95490.00;5116485;28;961;-55
2023/07/17 10:33:10;;;;;;;;;;;;;;;33.69;46.93;95487.16;5116336;28;1051;-55
2023/07/17 10:35:46;;;;;;;;;;;;;;;33.76;47.19;95490.38;5115076;28;1060;-55
2023/07/17 10:38:12;;;;;;;;;;;;;;;33.82;45.09;95491.13;5116319;28;1991;-55
2023/07/17 10:40:39;;;;;;;;;;;;;;;33.83;46.28;95484.47;5116283;28;1056;-55
2023/07/17 10:43:11;;;;;;;;;;;;;;;33.88;48.55;95476.03;5116027;28;1108;-55
2023/07/17 10:45:37;;;;;;;;;;;;;;;33.92;44.88;95485.44;5116008;28;1088;-55
2023/07/17 10:48:05;;;;;;;;;;;;;;;33.95;43.19;95473.72;5115842;28;1060;-55
2023/07/17 10:50:31;;;;;;;;;;;;;;;34.12;44.50;95477.88;5115906;28;1048;-55
2023/07/17 10:53:03;;;;;;;;;;;;;;;34.13;43.03;95477.59;5116056;28;1036;-55
2023/07/17 10:55:30;;;;;;;;;;;;;;;34.23;43.99;95473.84;5115987;28;1052;-55
2023/07/17 10:57:57;;;;;;;;;;;;;;;34.30;42.39;95478.97;5115764;27;1906;-55
2023/07/17 11:00:24;;;;;;;;;;;;;;;34.28;41.53;95481.25;5115706;28;1112;-55
2023/07/17 11:02:50;;;;;;;;;;;;;;;34.20;42.33;95480.81;5115615;28;1024;-55
2023/07/17 11:05:16;;;;;;;;;;;;;;;34.07;41.64;95477.97;5115598;28;1108;-55
2023/07/17 11:07:44;;;;;;;;;;;;;;;34.01;40.24;95475.25;5115698;28;991;-55
2023/07/17 11:10:12;;;;;;;;;;;;;;;34.04;42.36;95471.91;5115679;28;971;-55
2023/07/17 11:12:39;;;;;;;;;;;;;;;34.04;41.84;95471.09;5115551;28;1022;-55
2023/07/17 11:15:13;;;;;;;;;;;;;;;34.13;39.63;95463.72;5115329;28;1060;-55
2023/07/17 11:17:39;;;;;;;;;;;;;;;34.20;40.89;95457.78;5115371;28;1108;-55
2023/07/17 11:20:05;;;;;;;;;;;;;;;34.12;41.61;95458.47;5115111;28;1906;-56
2023/07/17 11:22:32;;;;;;;;;;;;;;;34.03;42.11;95452.78;5115490;28;1036;-56
2023/07/17 11:24:58;;;;;;;;;;;;;;;33.98;43.20;95450.94;5115311;28;1104;-56
2023/07/17 11:27:24;;;;;;;;;;;;;;;33.99;43.49;95452.56;5115200;28;1438;-56
2023/07/17 11:29:50;;;;;;;;;;;;;;;33.97;42.86;95451.22;5115174;28;1135;-56
2023/07/17 11:32:36;;;;;;;;;;;;;;;33.89;40.02;95444.41;5115103;28;1709;-56
2023/07/17 11:35:22;;;;;;;;;;;;;;;33.96;39.75;95441.25;5114329;28;1505;-55
2023/07/17 11:37:48;;;;;;;;;;;;;;;33.99;41.71;95437.88;5115084;28;1060;-57
2023/07/17 11:40:14;;;;;;;;;;;;;;;34.03;41.97;95428.66;5115002;28;1096;-56
2023/07/17 11:42:56;;;;;;;;;;;;;;;34.04;41.49;95435.03;5114935;28;1053;-57
2023/07/17 11:45:23;;;;;;;;;;;;;;;33.97;38.79;95435.41;5114833;28;1128;-56
2023/07/17 11:47:49;;;;;;;;;;;;;;;33.93;39.24;95434.38;5114854;28;965;-56
2023/07/17 11:50:18;;;;;;;;;;;;;;;34.01;38.92;95433.66;5096711;28;1278;-56
2023/07/17 11:52:44;;;;;;;;;;;;;;;34.01;38.37;95438.38;5114866;28;996;-56
2023/07/17 11:55:11;;;;;;;;;;;;;;;34.13;39.30;95435.13;5114650;28;1219;-56
2023/07/17 11:57:37;;;;;;;;;;;;;;;34.23;41.49;95427.50;5114836;28;920;-56
2023/07/17 12:00:04;;;;;;;;;;;;;;;34.29;38.93;95431.00;5114737;28;1902;-56
2023/07/17 12:02:30;;;;;;;;;;;;;;;34.38;40.86;95417.25;5114726;28;1007;-56
2023/07/17 12:05:00;;;;;;;;;;;;;;;34.46;40.37;95424.03;5114521;28;1124;-56
2023/07/17 12:07:26;;;;;;;;;;;;;;;34.41;40.54;95417.47;5114518;28;969;-56
2023/07/17 12:09:52;;;;;;;;;;;;;;;34.29;40.40;95416.31;5114297;28;1034;-56
2023/07/17 12:12:18;;;;;;;;;;;;;;;34.27;39.56;95410.25;5113226;28;1147;-55
2023/07/17 12:14:44;;;;;;;;;;;;;;;34.41;40.35;95406.34;5114385;28;1040;-56
2023/07/17 12:17:13;;;;;;;;;;;;;;;34.54;38.79;95412.22;5114447;28;1008;-56
2023/07/17 12:19:41;;;;;;;;;;;;;;;34.45;39.17;95411.28;5113151;28;1993;-56
2023/07/17 12:22:07;;;;;;;;;;;;;;;34.33;40.98;95406.22;5114274;28;957;-56
2023/07/17 12:24:33;;;;;;;;;;;;;;;34.46;39.39;95407.38;5113223;28;1016;-56
2023/07/17 12:26:59;;;;;;;;;;;;;;;34.56;40.06;95409.94;5113178;28;1049;-56
2023/07/17 12:29:25;;;;;;;;;;;;;;;34.56;40.52;95412.72;5114293;28;1070;-55
2023/07/17 12:31:51;;;;;;;;;;;;;;;34.41;40.26;95403.59;5114111;28;1100;-56
2023/07/17 12:34:17;;;;;;;;;;;;;;;34.35;38.14;95401.19;5114023;28;1080;-55
2023/07/17 12:36:43;;;;;;;;;;;;;;;34.44;40.22;95402.13;5114009;28;972;-56
2023/07/17 12:39:13;;;;;;;;;;;;;;;34.53;39.78;95405.84;5113925;28;1910;-56
2023/07/17 12:41:40;;;;;;;;;;;;;;;34.39;38.07;95403.03;5114481;28;957;-56
2023/07/17 12:44:06;;;;;;;;;;;;;;;34.36;38.73;95405.63;5113968;28;1083;-56
2023/07/17 12:46:32;;;;;;;;;;;;;;;34.32;38.92;95402.63;5113876;28;1057;-56
2023/07/17 12:48:58;;;;;;;;;;;;;;;34.28;39.22;95403.53;5113814;28;1339;-56
2023/07/17 12:51:24;;;;;;;;;;;;;;;34.35;39.49;95401.19;5113763;28;1100;-56
2023/07/17 12:53:51;;;;;;;;;;;;;;;34.34;38.75;95397.59;5114099;28;1028;-56
2023/07/17 12:56:17;;;;;;;;;;;;;;;34.40;38.64;95401.91;5114099;28;1067;-55
2023/07/17 12:58:43;;;;;;;;;;;;;;;34.50;37.29;95394.53;5115836;28;1905;-56
2023/07/17 13:01:09;;;;;;;;;;;;;;;34.52;36.78;95408.91;5118264;28;988;-54
2023/07/17 13:03:35;;;;;;;;;;;;;;;34.44;38.99;95402.13;5116979;28;1036;-55